Time;durP1;ratioP1;P1;durP2;ratioP2;P2;SDS_P1;SDS_P2;PMS_P1;PMS_P2;Temp;Humidity;BMP_temperature;BMP_pressure;BME280_temperature;BME280_humidity;BME280_pressure;Samples;Min_cycle;Max_cycle;Signal;HPM_P1;HPM_P2
2022/10/09 00:04:51;;;;;;;3.92;1.77;;;14.10;92.80;;;;;;9952849;29;20051;-68
2022/10/09 00:10:10;;;;;;;4.88;2.05;;;14.10;92.80;;;;;;9961937;29;20058;-64
2022/10/09 00:15:29;;;;;;;2.55;1.83;;;14.00;92.70;;;;;;9958296;29;20038;-63
2022/10/09 00:20:49;;;;;;;3.33;1.83;;;14.00;92.70;;;;;;9962864;29;20042;-62
2022/10/09 00:26:08;;;;;;;4.25;2.08;;;14.00;92.70;;;;;;9961634;29;20071;-63
2022/10/09 00:31:28;;;;;;;5.43;2.25;;;14.00;92.70;;;;;;9959384;29;20490;-63
2022/10/09 00:36:47;;;;;;;4.20;1.92;;;13.90;92.70;;;;;;9954713;29;20134;-69
2022/10/09 00:42:10;;;;;;;3.42;1.95;;;13.90;92.70;;;;;;9957129;29;20035;-63
2022/10/09 00:47:40;;;;;;;4.45;2.13;;;13.90;92.70;;;;;;9960274;29;20046;-69
2022/10/09 00:53:02;;;;;;;4.90;2.10;;;13.90;92.70;;;;;;9942488;29;20039;-68
2022/10/09 00:58:22;;;;;;;4.93;1.92;;;13.90;92.70;;;;;;9958124;29;20038;-62
2022/10/09 01:03:52;;;;;;;5.03;2.22;;;13.80;92.70;;;;;;9955324;29;20046;-62
2022/10/09 01:09:16;;;;;;;4.43;2.08;;;13.80;92.70;;;;;;9941216;29;20524;-67
2022/10/09 01:14:50;;;;;;;4.32;1.98;;;13.80;92.70;;;;;;9965466;29;20366;-62
2022/10/09 01:20:22;;;;;;;4.88;2.10;;;13.80;92.70;;;;;;9963147;29;20125;-68
2022/10/09 01:26:12;;;;;;;3.58;2.00;;;13.70;92.70;;;;;;9960323;29;20046;-63
2022/10/09 01:31:35;;;;;;;3.97;1.92;;;13.70;92.60;;;;;;9960234;29;20046;-63
2022/10/09 01:36:56;;;;;;;4.43;2.30;;;13.70;92.70;;;;;;9954312;29;20034;-62
2022/10/09 01:42:19;;;;;;;5.13;2.00;;;13.70;92.70;;;;;;9958129;29;20428;-62
2022/10/09 01:47:38;;;;;;;3.95;2.20;;;13.60;92.70;;;;;;9955553;29;20066;-69
2022/10/09 01:53:03;;;;;;;3.83;1.90;;;13.60;92.70;;;;;;9955460;29;20026;-63
2022/10/09 01:58:34;;;;;;;4.90;2.13;;;13.60;92.70;;;;;;9949679;29;20047;-62
2022/10/09 02:03:56;;;;;;;3.78;1.92;;;13.60;92.60;;;;;;9956156;29;20030;-62
2022/10/09 02:09:17;;;;;;;2.83;1.60;;;13.60;92.70;;;;;;9953494;29;20150;-62
2022/10/09 02:14:36;;;;;;;2.90;1.92;;;13.50;92.60;;;;;;9959010;29;20043;-62
2022/10/09 02:20:14;;;;;;;4.07;1.80;;;13.50;92.60;;;;;;9955216;29;20540;-62
2022/10/09 02:25:34;;;;;;;4.35;1.90;;;13.50;92.60;;;;;;9947444;29;20138;-68
2022/10/09 02:31:16;;;;;;;2.88;2.05;;;13.50;92.60;;;;;;9963637;29;20113;-64
2022/10/09 02:36:37;;;;;;;3.20;1.92;;;13.50;92.60;;;;;;9959505;29;20408;-63
2022/10/09 02:41:57;;;;;;;2.88;1.85;;;13.40;92.60;;;;;;9962226;29;20113;-62
2022/10/09 02:47:16;;;;;;;4.78;2.20;;;13.40;92.60;;;;;;9962220;29;20141;-68
2022/10/09 02:52:35;;;;;;;3.22;2.05;;;13.40;92.60;;;;;;9958125;29;20496;-62
2022/10/09 02:57:54;;;;;;;4.00;1.55;;;13.40;92.60;;;;;;9969562;29;20042;-62
2022/10/09 03:03:14;;;;;;;3.95;2.33;;;13.30;92.50;;;;;;9964429;29;20046;-62
2022/10/09 03:08:33;;;;;;;2.05;1.63;;;13.30;92.50;;;;;;9958756;29;20050;-65
2022/10/09 03:13:53;;;;;;;3.33;1.90;;;13.30;92.50;;;;;;9965862;29;20046;-64
2022/10/09 03:19:12;;;;;;;4.72;2.22;;;13.30;92.50;;;;;;9958035;29;20043;-62
2022/10/09 03:24:32;;;;;;;2.20;1.77;;;13.30;92.50;;;;;;9963391;29;20043;-63
2022/10/09 03:29:51;;;;;;;2.72;1.77;;;13.20;92.50;;;;;;9957795;29;20050;-62
2022/10/09 03:35:10;;;;;;;2.60;1.80;;;13.20;92.50;;;;;;9963034;29;20038;-63
2022/10/09 03:40:29;;;;;;;3.03;1.90;;;13.20;92.50;;;;;;9956151;29;20042;-68
2022/10/09 03:45:49;;;;;;;4.03;1.83;;;13.20;92.50;;;;;;9963390;29;20051;-69
2022/10/09 03:51:10;;;;;;;2.58;1.70;;;13.10;92.50;;;;;;9945955;29;20061;-63
2022/10/09 03:56:29;;;;;;;2.40;1.50;;;13.10;92.40;;;;;;9936592;29;20072;-68
2022/10/09 04:01:49;;;;;;;3.75;1.83;;;13.10;92.40;;;;;;9959933;29;20100;-63
2022/10/09 04:07:08;;;;;;;2.72;1.60;;;13.10;92.40;;;;;;9959150;29;20050;-63
2022/10/09 04:12:27;;;;;;;3.22;1.75;;;13.20;92.40;;;;;;9959981;29;20066;-68
2022/10/09 04:17:47;;;;;;;3.17;2.00;;;13.80;92.60;;;;;;9960508;29;20034;-62
2022/10/09 04:23:06;;;;;;;3.95;1.67;;;13.10;92.40;;;;;;9961194;29;20417;-62
2022/10/09 04:28:27;;;;;;;2.58;1.30;;;13.00;92.30;;;;;;9959346;29;20050;-63
2022/10/09 04:33:46;;;;;;;2.97;1.70;;;13.00;92.40;;;;;;9941738;29;20023;-62
2022/10/09 04:39:06;;;;;;;2.85;1.50;;;13.00;92.30;;;;;;9958123;29;20042;-66
2022/10/09 04:44:25;;;;;;;2.15;1.55;;;13.00;92.30;;;;;;9952060;29;20031;-62
2022/10/09 04:49:44;;;;;;;2.22;1.52;;;13.00;92.30;;;;;;9964133;29;20046;-63
2022/10/09 04:55:04;;;;;;;3.90;1.80;;;12.90;92.30;;;;;;9955948;29;20038;-65
2022/10/09 05:00:23;;;;;;;2.95;1.60;;;12.90;92.60;;;;;;9952824;29;20529;-69
2022/10/09 05:05:42;;;;;;;3.25;1.92;;;12.90;92.30;;;;;;9954850;29;20054;-62
2022/10/09 05:11:10;;;;;;;3.45;2.08;;;12.90;92.30;;;;;;9955913;29;20062;-63
2022/10/09 05:16:32;;;;;;;2.87;1.50;;;12.90;92.30;;;;;;9954149;29;20427;-63
2022/10/09 05:21:55;;;;;;;3.60;1.70;;;12.80;92.30;;;;;;9957649;29;20054;-65
2022/10/09 05:27:15;;;;;;;3.00;1.70;;;12.80;92.30;;;;;;9940787;29;20043;-69
2022/10/09 05:32:34;;;;;;;2.00;1.65;;;12.80;92.30;;;;;;9955920;29;20046;-67
2022/10/09 05:37:53;;;;;;;2.92;1.83;;;12.80;92.30;;;;;;9965027;29;20042;-63
2022/10/09 05:43:12;;;;;;;3.25;2.00;;;12.80;92.30;;;;;;9956576;29;20038;-63
2022/10/09 05:48:32;;;;;;;3.58;1.67;;;13.20;92.30;;;;;;9958589;29;20050;-63
2022/10/09 05:53:51;;;;;;;2.83;1.88;;;12.80;92.20;;;;;;9959840;29;20039;-65
2022/10/09 05:59:13;;;;;;;3.42;1.33;;;12.70;92.20;;;;;;9954272;29;20430;-62
2022/10/09 06:04:33;;;;;;;2.80;1.75;;;12.90;92.20;;;;;;9954492;29;20133;-65
2022/10/09 06:09:53;;;;;;;5.43;1.92;;;12.70;92.40;;;;;;9920314;29;20177;-63
2022/10/09 06:15:13;;;;;;;3.10;1.70;;;12.60;92.10;;;;;;9976087;24;20054;-62
2022/10/09 06:20:33;;;;;;;5.20;2.00;;;12.70;92.10;;;;;;9899353;24;21785;-63
2022/10/09 06:25:59;;;;;;;5.25;2.00;;;12.60;92.10;;;;;;9913157;24;21941;-62
2022/10/09 06:31:37;;;;;;;2.88;1.75;;;12.60;92.30;;;;;;9874343;29;20043;-67
2022/10/09 06:36:57;;;;;;;2.40;1.73;;;13.00;92.10;;;;;;9875503;29;20201;-64
2022/10/09 06:42:16;;;;;;;3.03;2.03;;;12.60;92.00;;;;;;9885105;29;20486;-63
2022/10/09 06:47:36;;;;;;;1.75;1.52;;;12.60;92.10;;;;;;9912060;24;20878;-67
2022/10/09 06:52:55;;;;;;;4.15;1.90;;;12.40;92.00;;;;;;10037912;24;20066;-62
2022/10/09 06:58:15;;;;;;;3.33;1.90;;;12.60;92.00;;;;;;9867836;29;20039;-63
2022/10/09 07:03:56;;;;;;;4.40;1.90;;;12.60;92.00;;;;;;9888283;29;20046;-62
2022/10/09 07:09:16;;;;;;;3.65;1.80;;;12.60;91.90;;;;;;9883386;29;20887;-62
2022/10/09 07:14:35;;;;;;;3.38;1.80;;;12.70;92.00;;;;;;9876231;29;20040;-63
2022/10/09 07:19:55;;;;;;;2.72;1.90;;;12.60;92.00;;;;;;9874291;29;20336;-62
2022/10/09 07:25:15;;;;;;;4.70;2.17;;;12.70;91.90;;;;;;9876693;29;20042;-63
2022/10/09 07:30:38;;;;;;;2.67;1.90;;;12.70;91.90;;;;;;9885962;29;20053;-64
2022/10/09 07:35:59;;;;;;;4.55;2.58;;;12.80;91.90;;;;;;9882130;29;20572;-62
2022/10/09 07:41:20;;;;;;;2.45;2.05;;;12.80;91.80;;;;;;9887373;29;20046;-66
2022/10/09 07:46:39;;;;;;;4.10;2.10;;;12.90;91.80;;;;;;9884892;29;20046;-64
2022/10/09 07:51:59;;;;;;;4.72;1.88;;;13.00;91.80;;;;;;10099252;24;20590;-64
2022/10/09 07:57:27;;;;;;;2.60;1.73;;;13.00;91.70;;;;;;9912506;29;20065;-63
2022/10/09 08:03:16;;;;;;;3.38;2.00;;;13.10;91.80;;;;;;9899057;23;20066;-69
2022/10/09 08:08:36;;;;;;;3.20;1.83;;;13.10;91.90;;;;;;9857688;29;20072;-64
2022/10/09 08:13:55;;;;;;;2.85;1.80;;;13.20;91.80;;;;;;9993999;24;20017;-62
2022/10/09 08:19:15;;;;;;;3.92;2.20;;;13.20;91.80;;;;;;9904515;24;20376;-63
2022/10/09 08:29:37;;;;;;;3.67;2.40;;;13.30;91.80;;;;;;9910495;24;20084;-63
2022/10/09 08:35:06;;;;;;;5.45;2.38;;;13.40;91.80;;;;;;9912750;23;20592;-62
2022/10/09 08:40:41;;;;;;;4.10;2.05;;;13.40;91.80;;;;;;9902694;29;20046;-67
2022/10/09 08:46:30;;;;;;;3.95;2.25;;;13.50;91.80;;;;;;9904681;29;20668;-63
2022/10/09 08:51:50;;;;;;;2.92;1.77;;;13.50;91.80;;;;;;9902008;29;20038;-62
2022/10/09 08:57:13;;;;;;;4.15;1.90;;;13.60;91.80;;;;;;9907663;29;20034;-62
2022/10/09 09:02:39;;;;;;;4.88;1.92;;;13.70;91.80;;;;;;9907539;29;20305;-65
2022/10/09 09:08:27;;;;;;;4.18;2.10;;;13.70;91.80;;;;;;9906588;29;20053;-63
2022/10/09 09:13:55;;;;;;;4.25;1.80;;;13.80;92.00;;;;;;9908146;29;20042;-62
2022/10/09 09:19:20;;;;;;;6.32;1.80;;;13.80;91.90;;;;;;9904554;29;20034;-62
2022/10/09 09:24:43;;;;;;;4.20;1.70;;;13.80;91.80;;;;;;9913125;29;20410;-65
2022/10/09 09:30:02;;;;;;;5.57;2.00;;;13.90;91.90;;;;;;9908490;29;20133;-64
2022/10/09 09:36:00;;;;;;;4.10;1.80;;;14.00;91.90;;;;;;9906827;29;20050;-61
2022/10/09 09:41:29;;;;;;;2.20;1.50;;;14.00;92.40;;;;;;9912814;29;20042;-62
2022/10/09 09:46:48;;;;;;;4.00;1.63;;;14.20;92.00;;;;;;10059671;23;20336;-63
2022/10/09 09:52:36;;;;;;;5.50;1.70;;;14.30;91.90;;;;;;10035166;23;20066;-63
2022/10/09 09:58:16;;;;;;;4.43;1.85;;;14.30;92.00;;;;;;9892281;29;20533;-63
2022/10/09 10:03:48;;;;;;;5.95;1.92;;;14.40;91.90;;;;;;9887339;29;20133;-63
2022/10/09 10:09:17;;;;;;;6.07;2.15;;;14.40;91.90;;;;;;9876180;29;20054;-66
2022/10/09 10:14:36;;;;;;;4.30;1.63;;;14.50;91.90;;;;;;9886539;29;20034;-63
2022/10/09 10:19:55;;;;;;;5.40;2.20;;;14.50;91.80;;;;;;9896555;29;20046;-62
2022/10/09 10:25:47;;;;;;;5.43;2.28;;;14.60;91.90;;;;;;9888847;29;20338;-66
2022/10/09 10:31:16;;;;;;;5.20;1.70;;;14.60;91.80;;;;;;9878412;29;20295;-63
2022/10/09 10:36:35;;;;;;;6.68;2.05;;;14.60;91.90;;;;;;9879417;29;20441;-65
2022/10/09 10:42:00;;;;;;;4.38;2.10;;;14.60;91.80;;;;;;9889281;29;20049;-63
2022/10/09 10:47:25;;;;;;;4.07;2.10;;;14.70;92.10;;;;;;9882455;29;20050;-62
2022/10/09 10:53:22;;;;;;;5.85;2.20;;;14.70;91.80;;;;;;9881457;24;20062;-66
2022/10/09 10:58:51;;;;;;;4.55;2.08;;;14.70;91.80;;;;;;9883844;29;20353;-65
2022/10/09 11:04:49;;;;;;;2.72;1.92;;;14.70;91.70;;;;;;9873519;29;20445;-62
2022/10/09 11:10:38;;;;;;;4.47;2.03;;;14.80;91.80;;;;;;9889098;23;20312;-63
2022/10/09 11:16:22;;;;;;;6.70;1.80;;;14.80;91.70;;;;;;9883032;29;20295;-62
2022/10/09 11:21:41;;;;;;;4.28;1.88;;;14.80;91.70;;;;;;9885459;29;20739;-62
2022/10/09 11:27:22;;;;;;;4.10;1.88;;;14.80;91.60;;;;;;9878806;29;20893;-63
2022/10/09 11:33:04;;;;;;;5.22;1.73;;;14.90;91.60;;;;;;9895923;29;20120;-63
2022/10/09 11:38:46;;;;;;;3.25;1.88;;;14.90;91.60;;;;;;9889423;29;20038;-70
2022/10/09 11:50:51;;;;;;;4.95;1.80;;;15.00;91.40;;;;;;9841492;29;20046;-63
2022/10/09 11:56:24;;;;;;;4.07;1.60;;;15.10;91.40;;;;;;9879871;29;20058;-62
2022/10/09 12:01:46;;;;;;;3.60;1.67;;;15.10;91.30;;;;;;9868397;29;20046;-63
2022/10/09 12:07:11;;;;;;;7.40;1.77;;;15.10;91.30;;;;;;9882513;29;20420;-65
2022/10/09 12:12:37;;;;;;;3.38;1.50;;;15.10;91.20;;;;;;9871658;29;20038;-66
2022/10/09 12:17:59;;;;;;;3.17;1.73;;;15.20;91.20;;;;;;9870937;29;20082;-65
2022/10/09 12:23:23;;;;;;;3.13;1.52;;;15.20;91.20;;;;;;9879948;29;20636;-63
2022/10/09 12:28:56;;;;;;;8.68;2.75;;;15.20;91.00;;;;;;9872116;29;20419;-62
2022/10/09 12:34:31;;;;;;;6.47;2.78;;;15.30;90.60;;;;;;9870433;29;20026;-62
2022/10/09 12:39:50;;;;;;;5.38;2.38;;;15.30;90.70;;;;;;9872574;29;20855;-63
2022/10/09 12:45:19;;;;;;;7.65;3.30;;;15.40;90.60;;;;;;9873831;29;20854;-65
2022/10/09 12:50:41;;;;;;;6.18;3.03;;;15.40;90.40;;;;;;9881206;29;20906;-63
2022/10/09 12:56:02;;;;;;;9.05;3.45;;;15.50;90.20;;;;;;9869300;29;20986;-62
2022/10/09 13:01:22;;;;;;;6.90;2.65;;;15.40;90.00;;;;;;9870080;29;21630;-62
2022/10/09 13:06:43;;;;;;;5.45;2.35;;;15.60;89.70;;;;;;9869011;29;20845;-66
2022/10/09 13:12:14;;;;;;;5.80;2.60;;;15.70;89.20;;;;;;9868958;29;20542;-63
2022/10/09 13:17:41;;;;;;;7.03;2.85;;;15.80;88.20;;;;;;9875750;29;20154;-63
2022/10/09 13:23:04;;;;;;;8.23;2.80;;;15.80;88.50;;;;;;9867651;29;20456;-63
2022/10/09 13:28:23;;;;;;;7.70;2.42;;;15.90;88.10;;;;;;9867618;29;20046;-62
2022/10/09 13:33:43;;;;;;;5.28;2.20;;;16.00;87.50;;;;;;9864059;29;20775;-62
2022/10/09 13:39:03;;;;;;;7.70;2.55;;;16.10;87.30;;;;;;9867012;29;20999;-63
2022/10/09 13:44:23;;;;;;;3.40;2.30;;;16.30;86.80;;;;;;9872528;29;20126;-64
2022/10/09 13:49:45;;;;;;;6.68;2.50;;;16.40;86.30;;;;;;9870679;29;20167;-64
2022/10/09 13:55:05;;;;;;;4.05;2.10;;;16.60;85.70;;;;;;9874511;29;20904;-67
2022/10/09 14:00:24;;;;;;;7.10;2.05;;;16.70;85.20;;;;;;9871481;29;20043;-62
2022/10/09 14:05:43;;;;;;;7.03;2.33;;;16.80;85.00;;;;;;9864221;29;22063;-65
2022/10/09 14:11:03;;;;;;;6.40;2.45;;;16.90;84.60;;;;;;9876805;29;20332;-66
2022/10/09 14:16:23;;;;;;;8.63;2.63;;;16.90;84.60;;;;;;9871741;29;20056;-66
2022/10/09 14:21:45;;;;;;;7.15;2.63;;;16.90;84.60;;;;;;9879859;29;20240;-62
2022/10/09 14:27:04;;;;;;;3.97;2.00;;;16.80;84.80;;;;;;9875354;29;20165;-62
2022/10/09 14:32:23;;;;;;;7.40;2.42;;;16.70;84.60;;;;;;9873576;29;20399;-63
2022/10/09 14:37:42;;;;;;;8.50;2.42;;;16.80;84.50;;;;;;9879950;29;20881;-62
2022/10/09 14:43:02;;;;;;;4.82;2.15;;;16.50;84.20;;;;;;9880732;29;20038;-67
2022/10/09 14:48:21;;;;;;;7.18;1.90;;;16.80;84.60;;;;;;9873110;29;20055;-63
2022/10/09 14:53:41;;;;;;;11.82;2.33;;;16.80;84.70;;;;;;9880090;29;20983;-63
2022/10/09 14:59:00;;;;;;;6.07;2.45;;;16.80;84.80;;;;;;9883705;29;20143;-63
2022/10/09 15:04:19;;;;;;;5.53;2.20;;;16.70;84.90;;;;;;9862432;29;20065;-63
2022/10/09 15:09:38;;;;;;;7.47;2.22;;;16.70;85.30;;;;;;9881584;29;21113;-61
2022/10/09 15:14:57;;;;;;;9.63;2.60;;;16.40;85.90;;;;;;9873451;29;20430;-69
2022/10/09 15:20:17;;;;;;;6.18;2.38;;;16.20;86.60;;;;;;9877775;29;20405;-61
2022/10/09 15:25:36;;;;;;;5.20;2.40;;;15.90;86.90;;;;;;9875338;29;20633;-62
2022/10/09 15:30:59;;;;;;;6.60;2.70;;;15.80;87.40;;;;;;9873745;29;20050;-61
2022/10/09 15:36:20;;;;;;;7.95;2.08;;;15.70;87.50;;;;;;9874308;29;20038;-62
2022/10/09 15:41:41;;;;;;;8.10;2.08;;;15.70;88.00;;;;;;9876609;29;20034;-62
2022/10/09 15:47:00;;;;;;;6.68;2.22;;;15.80;87.90;;;;;;9885839;29;20540;-63
2022/10/09 15:52:19;;;;;;;3.05;1.63;;;15.90;88.10;;;;;;9879818;29;20038;-62
2022/10/09 15:57:39;;;;;;;3.80;1.90;;;16.00;88.40;;;;;;9879409;29;20039;-64
2022/10/09 16:02:58;;;;;;;5.35;1.85;;;16.00;88.50;;;;;;9879389;29;20070;-63
2022/10/09 16:08:18;;;;;;;6.35;2.13;;;16.00;88.40;;;;;;9874400;29;20532;-66
2022/10/09 16:13:41;;;;;;;11.07;1.90;;;16.10;88.60;;;;;;9879158;29;20129;-62
2022/10/09 16:19:02;;;;;;;4.63;1.90;;;16.10;89.10;;;;;;9864445;29;20038;-62
2022/10/09 16:24:22;;;;;;;6.22;2.05;;;16.10;89.20;;;;;;9866012;29;20042;-63
2022/10/09 16:29:41;;;;;;;3.95;2.03;;;16.10;89.30;;;;;;9870203;29;20060;-62
2022/10/09 16:35:01;;;;;;;5.50;1.75;;;16.10;89.40;;;;;;9868939;29;20062;-63
2022/10/09 16:40:20;;;;;;;3.55;1.70;;;16.20;89.50;;;;;;9863567;29;20047;-63
2022/10/09 16:45:40;;;;;;;2.63;1.50;;;16.00;89.50;;;;;;9868223;29;20058;-63
2022/10/09 16:50:59;;;;;;;1.85;1.48;;;16.00;89.60;;;;;;9865134;29;20909;-63
2022/10/09 16:56:21;;;;;;;5.28;2.33;;;15.90;89.60;;;;;;9872640;29;20050;-62
2022/10/09 17:01:44;;;;;;;4.03;1.60;;;15.90;90.30;;;;;;9861985;29;20229;-64
2022/10/09 17:07:03;;;;;;;3.70;1.83;;;15.90;90.30;;;;;;9882617;29;20876;-62
2022/10/09 17:12:22;;;;;;;3.10;1.85;;;15.90;90.50;;;;;;9868668;29;20834;-63
2022/10/09 17:17:41;;;;;;;4.32;1.80;;;15.90;90.70;;;;;;9863103;29;20060;-64
2022/10/09 17:23:02;;;;;;;6.72;2.92;;;15.90;90.70;;;;;;9924434;29;20141;-64
2022/10/09 17:28:24;;;;;;;18.70;3.50;;;15.90;90.80;;;;;;9951391;29;20191;-68
2022/10/09 17:33:44;;;;;;;35.08;4.40;;;15.90;90.90;;;;;;9949064;29;20050;-61
2022/10/09 17:39:07;;;;;;;24.25;3.22;;;15.80;90.90;;;;;;9950464;29;20038;-62
2022/10/09 17:44:28;;;;;;;21.67;3.00;;;15.80;91.10;;;;;;9950717;29;20086;-62
2022/10/09 17:49:48;;;;;;;14.25;2.83;;;15.80;91.00;;;;;;9946022;29;20082;-64
2022/10/09 17:55:08;;;;;;;10.50;2.70;;;15.70;91.20;;;;;;9946088;29;20392;-62
2022/10/09 18:00:27;;;;;;;13.25;2.67;;;15.80;91.30;;;;;;9952274;29;20034;-63
2022/10/09 18:05:48;;;;;;;9.90;2.55;;;15.70;91.20;;;;;;9957918;29;20609;-63
2022/10/09 18:11:11;;;;;;;6.10;2.25;;;15.70;91.20;;;;;;9961478;29;20042;-63
2022/10/09 18:16:35;;;;;;;6.93;2.28;;;15.60;91.20;;;;;;9965957;29;20496;-62
2022/10/09 18:21:54;;;;;;;9.68;2.50;;;15.60;91.50;;;;;;9962998;29;20034;-66
2022/10/09 18:27:13;;;;;;;8.50;2.58;;;15.50;91.20;;;;;;9961160;29;20528;-63
2022/10/09 18:32:33;;;;;;;7.43;2.90;;;15.50;91.20;;;;;;9961741;29;20038;-63
2022/10/09 18:37:52;;;;;;;7.88;2.45;;;15.50;91.20;;;;;;9961528;29;21409;-64
2022/10/09 18:43:11;;;;;;;7.60;2.70;;;15.40;91.10;;;;;;9956151;29;20038;-63
2022/10/09 18:48:35;;;;;;;7.45;2.67;;;15.40;91.10;;;;;;9954138;29;20058;-64
2022/10/09 18:53:59;;;;;;;4.20;2.38;;;15.30;91.10;;;;;;9954647;29;20062;-65
2022/10/09 18:59:21;;;;;;;4.90;2.63;;;15.30;91.10;;;;;;9959963;29;20027;-62
2022/10/09 19:04:40;;;;;;;3.42;2.45;;;15.30;91.10;;;;;;9960161;29;20030;-63
2022/10/09 19:10:00;;;;;;;4.38;2.67;;;15.30;91.00;;;;;;9958845;29;20038;-62
2022/10/09 19:15:19;;;;;;;4.13;2.40;;;15.20;91.00;;;;;;9960773;29;20042;-64
2022/10/09 19:20:38;;;;;;;5.60;2.25;;;15.20;91.00;;;;;;9960435;29;20484;-66
2022/10/09 19:25:58;;;;;;;6.38;2.55;;;15.20;91.00;;;;;;9963773;29;20042;-64
2022/10/09 19:31:18;;;;;;;6.50;2.40;;;15.10;90.90;;;;;;9964501;29;20477;-67
2022/10/09 19:36:37;;;;;;;5.55;2.20;;;15.10;90.90;;;;;;9959931;29;20035;-62
2022/10/09 19:41:56;;;;;;;3.53;2.00;;;15.10;90.90;;;;;;9954400;29;20039;-67
2022/10/09 19:47:17;;;;;;;3.63;2.20;;;15.10;90.90;;;;;;9965590;29;20063;-64
2022/10/09 19:52:37;;;;;;;5.53;2.30;;;15.00;90.80;;;;;;9961040;29;20042;-62
2022/10/09 19:57:57;;;;;;;5.65;2.25;;;15.00;90.80;;;;;;9962453;29;20038;-63
2022/10/09 20:03:16;;;;;;;3.13;2.00;;;15.00;90.80;;;;;;9957468;29;20039;-63
2022/10/09 20:08:37;;;;;;;5.10;2.50;;;15.00;90.80;;;;;;9961150;29;20042;-62
2022/10/09 20:13:57;;;;;;;5.25;2.33;;;14.90;90.80;;;;;;9962732;29;20042;-64
2022/10/09 20:19:16;;;;;;;5.95;3.38;;;14.90;90.70;;;;;;9965111;29;20794;-62
2022/10/09 20:24:36;;;;;;;3.22;2.13;;;14.90;90.70;;;;;;9959985;29;20496;-63
2022/10/09 20:29:55;;;;;;;4.78;2.20;;;14.80;90.90;;;;;;9966664;29;20050;-61
2022/10/09 20:35:14;;;;;;;2.95;1.92;;;14.80;90.70;;;;;;9965431;29;20027;-62
2022/10/09 20:40:34;;;;;;;4.28;2.13;;;14.80;90.70;;;;;;9955240;29;20070;-64
2022/10/09 20:45:53;;;;;;;2.83;1.67;;;14.80;90.70;;;;;;9963389;29;20058;-66
2022/10/09 20:51:12;;;;;;;3.25;1.92;;;14.80;90.70;;;;;;9960322;29;20117;-62
2022/10/09 20:56:32;;;;;;;3.83;1.90;;;14.70;90.60;;;;;;9961679;29;20038;-62
2022/10/09 21:01:52;;;;;;;4.28;2.50;;;14.70;90.60;;;;;;9964568;29;20046;-62
2022/10/09 21:07:11;;;;;;;4.38;2.22;;;14.70;90.60;;;;;;9958999;29;20047;-64
2022/10/09 21:12:30;;;;;;;3.67;1.83;;;14.60;90.60;;;;;;9956259;29;20054;-66
2022/10/09 21:17:49;;;;;;;2.35;2.10;;;14.60;90.60;;;;;;9964066;29;20125;-62
2022/10/09 21:23:10;;;;;;;4.85;1.80;;;14.60;90.60;;;;;;9963371;29;20271;-65
2022/10/09 21:28:29;;;;;;;2.83;1.90;;;14.60;90.60;;;;;;9961385;29;20050;-66
2022/10/09 21:33:49;;;;;;;2.88;1.83;;;14.50;90.60;;;;;;9963278;29;20030;-62
2022/10/09 21:39:09;;;;;;;4.57;2.25;;;14.50;90.60;;;;;;9958370;29;20038;-63
2022/10/09 21:44:28;;;;;;;2.95;2.00;;;14.50;90.60;;;;;;9958638;29;20046;-65
2022/10/09 21:49:48;;;;;;;3.22;2.13;;;14.50;90.60;;;;;;9944716;29;20051;-69
2022/10/09 21:55:08;;;;;;;2.65;1.92;;;14.40;90.50;;;;;;9957026;29;20133;-69
2022/10/09 22:00:27;;;;;;;2.10;1.80;;;14.40;90.50;;;;;;9962113;29;20564;-69
2022/10/09 22:05:46;;;;;;;3.72;1.83;;;14.40;90.50;;;;;;9956183;29;20042;-66
2022/10/09 22:11:07;;;;;;;3.05;1.92;;;14.40;90.50;;;;;;9958884;29;20129;-61
2022/10/09 22:16:26;;;;;;;3.60;1.98;;;14.30;90.50;;;;;;9958291;29;20500;-61
2022/10/09 22:21:47;;;;;;;3.78;2.00;;;14.30;90.50;;;;;;9958947;29;20046;-61
2022/10/09 22:27:06;;;;;;;3.88;1.88;;;14.30;90.50;;;;;;9956991;29;20062;-66
2022/10/09 22:32:25;;;;;;;7.70;2.10;;;14.30;90.50;;;;;;9960261;29;20043;-65
2022/10/09 22:37:44;;;;;;;3.88;1.98;;;14.20;90.50;;;;;;9962458;29;20050;-64
2022/10/09 22:43:03;;;;;;;9.15;2.40;;;14.20;90.50;;;;;;9958872;29;20038;-67
2022/10/09 22:48:23;;;;;;;3.45;2.10;;;14.20;90.50;;;;;;9955115;29;20087;-70
2022/10/09 22:53:44;;;;;;;3.00;2.33;;;14.20;90.50;;;;;;9964750;29;20143;-69
2022/10/09 22:59:05;;;;;;;3.63;2.30;;;14.20;90.50;;;;;;9959449;29;20042;-64
2022/10/09 23:04:24;;;;;;;3.28;2.00;;;14.10;90.50;;;;;;9961284;29;20027;-66
2022/10/09 23:09:43;;;;;;;3.30;2.08;;;14.10;90.50;;;;;;9957429;29;20062;-62
2022/10/09 23:15:02;;;;;;;3.45;2.00;;;14.10;90.50;;;;;;9968930;29;20026;-62
2022/10/09 23:20:21;;;;;;;3.15;2.08;;;14.10;90.50;;;;;;9962638;29;20125;-64
2022/10/09 23:25:41;;;;;;;4.70;2.58;;;14.10;90.50;;;;;;9964498;29;20509;-68
2022/10/09 23:31:12;;;;;;;3.95;2.25;;;14.00;90.50;;;;;;9941007;29;20133;-62
2022/10/09 23:36:32;;;;;;;3.83;2.28;;;14.00;90.40;;;;;;9949794;29;20128;-63
2022/10/09 23:41:51;;;;;;;4.00;2.35;;;14.00;90.50;;;;;;9962209;29;20038;-69
2022/10/09 23:47:10;;;;;;;4.22;2.33;;;14.00;90.50;;;;;;9954999;29;20186;-65
2022/10/09 23:52:29;;;;;;;3.05;2.35;;;13.90;90.50;;;;;;9960897;29;20936;-67
2022/10/09 23:57:49;;;;;;;3.38;2.38;;;13.90;90.50;;;;;;9954197;29;20050;-62
